sensor_id;sensor_type;location;lat;lon;timestamp;temperature;humidity
68235;DHT22;55052;52.056;5.296;2023-11-19T00:00:09;14.70;99.90
68235;DHT22;55052;52.056;5.296;2023-11-19T00:02:40;14.70;99.90
68235;DHT22;55052;52.056;5.296;2023-11-19T00:05:08;14.70;99.90
68235;DHT22;55052;52.056;5.296;2023-11-19T00:07:40;14.80;99.90
68235;DHT22;55052;52.056;5.296;2023-11-19T00:10:10;14.70;99.90
68235;DHT22;55052;52.056;5.296;2023-11-19T00:12:39;14.70;99.90
68235;DHT22;55052;52.056;5.296;2023-11-19T00:15:07;14.70;99.90
68235;DHT22;55052;52.056;5.296;2023-11-19T00:17:39;14.70;99.90
68235;DHT22;55052;52.056;5.296;2023-11-19T00:20:15;14.80;99.90
68235;DHT22;55052;52.056;5.296;2023-11-19T00:22:42;14.80;99.90
68235;DHT22;55052;52.056;5.296;2023-11-19T00:25:12;14.80;99.90
68235;DHT22;55052;52.056;5.296;2023-11-19T00:27:39;14.80;99.90
68235;DHT22;55052;52.056;5.296;2023-11-19T00:30:07;14.80;99.90
68235;DHT22;55052;52.056;5.296;2023-11-19T00:32:37;14.80;99.90
68235;DHT22;55052;52.056;5.296;2023-11-19T00:35:06;14.80;99.90
68235;DHT22;55052;52.056;5.296;2023-11-19T00:37:34;14.80;99.90
68235;DHT22;55052;52.056;5.296;2023-11-19T00:40:01;14.80;99.90
68235;DHT22;55052;52.056;5.296;2023-11-19T00:42:32;14.80;99.90
68235;DHT22;55052;52.056;5.296;2023-11-19T00:44:59;14.80;99.90
68235;DHT22;55052;52.056;5.296;2023-11-19T00:47:26;14.80;99.90
68235;DHT22;55052;52.056;5.296;2023-11-19T00:49:52;14.80;99.90
68235;DHT22;55052;52.056;5.296;2023-11-19T00:52:19;14.80;99.90
68235;DHT22;55052;52.056;5.296;2023-11-19T00:54:47;14.80;99.90
68235;DHT22;55052;52.056;5.296;2023-11-19T00:57:13;14.80;99.90
68235;DHT22;55052;52.056;5.296;2023-11-19T00:59:43;14.80;99.90
68235;DHT22;55052;52.056;5.296;2023-11-19T01:02:10;14.80;99.90
68235;DHT22;55052;52.056;5.296;2023-11-19T01:04:37;14.80;99.90
68235;DHT22;55052;52.056;5.296;2023-11-19T01:07:05;14.80;99.90
68235;DHT22;55052;52.056;5.296;2023-11-19T01:09:42;14.80;99.90
68235;DHT22;55052;52.056;5.296;2023-11-19T01:12:09;14.80;99.90
68235;DHT22;55052;52.056;5.296;2023-11-19T01:14:39;14.80;99.80
68235;DHT22;55052;52.056;5.296;2023-11-19T01:17:06;14.80;99.70
68235;DHT22;55052;52.056;5.296;2023-11-19T01:19:33;14.80;99.80
68235;DHT22;55052;52.056;5.296;2023-11-19T01:22:01;14.80;99.80
68235;DHT22;55052;52.056;5.296;2023-11-19T01:24:28;14.80;99.70
68235;DHT22;55052;52.056;5.296;2023-11-19T01:26:55;14.80;99.70
68235;DHT22;55052;52.056;5.296;2023-11-19T01:29:24;14.80;99.70
68235;DHT22;55052;52.056;5.296;2023-11-19T01:31:51;14.80;99.60
68235;DHT22;55052;52.056;5.296;2023-11-19T01:34:18;14.80;99.60
68235;DHT22;55052;52.056;5.296;2023-11-19T01:36:46;14.80;99.50
68235;DHT22;55052;52.056;5.296;2023-11-19T01:39:15;14.80;99.50
68235;DHT22;55052;52.056;5.296;2023-11-19T01:41:46;14.80;99.40
68235;DHT22;55052;52.056;5.296;2023-11-19T01:44:13;14.80;99.40
68235;DHT22;55052;52.056;5.296;2023-11-19T01:46:42;14.80;99.30
68235;DHT22;55052;52.056;5.296;2023-11-19T01:49:10;14.80;99.30
68235;DHT22;55052;52.056;5.296;2023-11-19T01:51:39;14.70;99.10
68235;DHT22;55052;52.056;5.296;2023-11-19T01:54:07;14.70;99.20
68235;DHT22;55052;52.056;5.296;2023-11-19T01:56:35;14.70;99.10
68235;DHT22;55052;52.056;5.296;2023-11-19T01:59:03;14.70;99.10
68235;DHT22;55052;52.056;5.296;2023-11-19T02:01:30;14.70;99.10
68235;DHT22;55052;52.056;5.296;2023-11-19T02:04:01;14.70;99.00
68235;DHT22;55052;52.056;5.296;2023-11-19T02:06:29;14.60;98.90
68235;DHT22;55052;52.056;5.296;2023-11-19T02:08:56;14.60;98.80
68235;DHT22;55052;52.056;5.296;2023-11-19T02:11:23;14.50;98.70
68235;DHT22;55052;52.056;5.296;2023-11-19T02:13:56;14.50;98.60
68235;DHT22;55052;52.056;5.296;2023-11-19T02:16:23;14.50;98.60
68235;DHT22;55052;52.056;5.296;2023-11-19T02:18:50;14.50;98.60
68235;DHT22;55052;52.056;5.296;2023-11-19T02:21:17;14.40;98.50
68235;DHT22;55052;52.056;5.296;2023-11-19T02:23:44;14.40;98.40
68235;DHT22;55052;52.056;5.296;2023-11-19T02:26:28;14.30;98.70
68235;DHT22;55052;52.056;5.296;2023-11-19T02:28:58;14.30;98.30
68235;DHT22;55052;52.056;5.296;2023-11-19T02:31:25;14.20;98.30
68235;DHT22;55052;52.056;5.296;2023-11-19T02:33:54;14.20;98.20
68235;DHT22;55052;52.056;5.296;2023-11-19T02:36:21;14.20;98.20
68235;DHT22;55052;52.056;5.296;2023-11-19T02:38:48;14.10;98.20
68235;DHT22;55052;52.056;5.296;2023-11-19T02:41:15;14.10;98.20
68235;DHT22;55052;52.056;5.296;2023-11-19T02:43:42;14.10;98.10
68235;DHT22;55052;52.056;5.296;2023-11-19T02:46:08;14.00;98.00
68235;DHT22;55052;52.056;5.296;2023-11-19T02:48:38;14.00;98.10
68235;DHT22;55052;52.056;5.296;2023-11-19T02:51:05;14.00;98.00
68235;DHT22;55052;52.056;5.296;2023-11-19T02:53:36;13.90;98.00
68235;DHT22;55052;52.056;5.296;2023-11-19T02:56:07;13.90;98.00
68235;DHT22;55052;52.056;5.296;2023-11-19T02:58:52;13.90;97.90
68235;DHT22;55052;52.056;5.296;2023-11-19T03:01:26;13.80;97.90
68235;DHT22;55052;52.056;5.296;2023-11-19T03:03:58;13.80;97.90
68235;DHT22;55052;52.056;5.296;2023-11-19T03:06:25;13.80;97.90
68235;DHT22;55052;52.056;5.296;2023-11-19T03:08:52;13.80;97.90
68235;DHT22;55052;52.056;5.296;2023-11-19T03:11:19;13.70;97.80
68235;DHT22;55052;52.056;5.296;2023-11-19T03:13:46;13.70;97.90
68235;DHT22;55052;52.056;5.296;2023-11-19T03:16:13;13.70;97.90
68235;DHT22;55052;52.056;5.296;2023-11-19T03:18:40;13.60;97.80
68235;DHT22;55052;52.056;5.296;2023-11-19T03:21:07;13.60;97.80
68235;DHT22;55052;52.056;5.296;2023-11-19T03:23:37;13.60;97.80
68235;DHT22;55052;52.056;5.296;2023-11-19T03:26:04;13.60;97.80
68235;DHT22;55052;52.056;5.296;2023-11-19T03:28:32;13.60;97.70
68235;DHT22;55052;52.056;5.296;2023-11-19T03:30:59;13.50;98.10
68235;DHT22;55052;52.056;5.296;2023-11-19T03:33:26;13.50;97.70
68235;DHT22;55052;52.056;5.296;2023-11-19T03:35:56;13.50;97.80
68235;DHT22;55052;52.056;5.296;2023-11-19T03:38:24;13.50;97.70
68235;DHT22;55052;52.056;5.296;2023-11-19T03:40:53;13.40;97.70
68235;DHT22;55052;52.056;5.296;2023-11-19T03:43:20;13.40;97.70
68235;DHT22;55052;52.056;5.296;2023-11-19T03:45:47;13.40;97.70
68235;DHT22;55052;52.056;5.296;2023-11-19T03:48:14;13.40;97.70
68235;DHT22;55052;52.056;5.296;2023-11-19T03:50:45;13.30;97.60
68235;DHT22;55052;52.056;5.296;2023-11-19T03:53:12;13.30;97.60
68235;DHT22;55052;52.056;5.296;2023-11-19T03:55:40;13.30;97.60
68235;DHT22;55052;52.056;5.296;2023-11-19T03:58:07;13.30;97.60
68235;DHT22;55052;52.056;5.296;2023-11-19T04:00:34;13.20;97.60
68235;DHT22;55052;52.056;5.296;2023-11-19T04:03:00;13.20;97.60
68235;DHT22;55052;52.056;5.296;2023-11-19T04:05:27;13.20;97.60
68235;DHT22;55052;52.056;5.296;2023-11-19T04:07:54;13.20;97.60
68235;DHT22;55052;52.056;5.296;2023-11-19T04:10:21;13.20;97.50
68235;DHT22;55052;52.056;5.296;2023-11-19T04:12:49;13.10;97.60
68235;DHT22;55052;52.056;5.296;2023-11-19T04:15:16;13.10;97.50
68235;DHT22;55052;52.056;5.296;2023-11-19T04:17:43;13.10;97.50
68235;DHT22;55052;52.056;5.296;2023-11-19T04:20:11;13.10;97.50
68235;DHT22;55052;52.056;5.296;2023-11-19T04:22:41;13.10;97.50
68235;DHT22;55052;52.056;5.296;2023-11-19T04:25:08;13.10;97.50
68235;DHT22;55052;52.056;5.296;2023-11-19T04:27:35;13.00;97.40
68235;DHT22;55052;52.056;5.296;2023-11-19T04:30:03;13.00;97.40
68235;DHT22;55052;52.056;5.296;2023-11-19T04:32:30;13.00;97.40
68235;DHT22;55052;52.056;5.296;2023-11-19T04:34:57;13.00;97.40
68235;DHT22;55052;52.056;5.296;2023-11-19T04:37:24;13.00;97.40
68235;DHT22;55052;52.056;5.296;2023-11-19T04:39:51;12.90;97.30
68235;DHT22;55052;52.056;5.296;2023-11-19T04:42:18;12.90;97.30
68235;DHT22;55052;52.056;5.296;2023-11-19T04:44:45;12.90;97.30
68235;DHT22;55052;52.056;5.296;2023-11-19T04:47:12;12.90;97.20
68235;DHT22;55052;52.056;5.296;2023-11-19T04:49:42;12.90;97.20
68235;DHT22;55052;52.056;5.296;2023-11-19T04:52:09;12.90;97.20
68235;DHT22;55052;52.056;5.296;2023-11-19T04:54:43;12.80;97.20
68235;DHT22;55052;52.056;5.296;2023-11-19T04:57:10;12.80;97.20
68235;DHT22;55052;52.056;5.296;2023-11-19T04:59:38;12.80;97.10
68235;DHT22;55052;52.056;5.296;2023-11-19T05:02:05;12.80;97.10
68235;DHT22;55052;52.056;5.296;2023-11-19T05:04:31;12.80;97.10
68235;DHT22;55052;52.056;5.296;2023-11-19T05:06:59;12.80;97.00
68235;DHT22;55052;52.056;5.296;2023-11-19T05:09:26;12.80;97.00
68235;DHT22;55052;52.056;5.296;2023-11-19T05:11:53;12.80;97.00
68235;DHT22;55052;52.056;5.296;2023-11-19T05:14:20;12.70;97.00
68235;DHT22;55052;52.056;5.296;2023-11-19T05:16:48;12.70;97.00
68235;DHT22;55052;52.056;5.296;2023-11-19T05:19:15;12.70;97.00
68235;DHT22;55052;52.056;5.296;2023-11-19T05:21:43;12.70;96.90
68235;DHT22;55052;52.056;5.296;2023-11-19T05:24:11;12.70;96.90
68235;DHT22;55052;52.056;5.296;2023-11-19T05:26:40;12.70;96.90
68235;DHT22;55052;52.056;5.296;2023-11-19T05:29:07;12.70;96.90
68235;DHT22;55052;52.056;5.296;2023-11-19T05:31:34;12.70;96.90
68235;DHT22;55052;52.056;5.296;2023-11-19T05:34:03;12.70;96.90
68235;DHT22;55052;52.056;5.296;2023-11-19T05:36:31;12.70;96.80
68235;DHT22;55052;52.056;5.296;2023-11-19T05:38:58;12.60;96.80
68235;DHT22;55052;52.056;5.296;2023-11-19T05:41:24;12.70;96.80
68235;DHT22;55052;52.056;5.296;2023-11-19T05:43:51;12.60;96.80
68235;DHT22;55052;52.056;5.296;2023-11-19T05:46:18;12.60;96.80
68235;DHT22;55052;52.056;5.296;2023-11-19T05:48:47;12.60;96.80
68235;DHT22;55052;52.056;5.296;2023-11-19T05:51:14;12.60;96.80
68235;DHT22;55052;52.056;5.296;2023-11-19T05:53:44;12.60;96.80
68235;DHT22;55052;52.056;5.296;2023-11-19T05:56:12;12.60;96.80
68235;DHT22;55052;52.056;5.296;2023-11-19T05:58:40;12.60;96.80
68235;DHT22;55052;52.056;5.296;2023-11-19T06:01:07;12.60;96.80
68235;DHT22;55052;52.056;5.296;2023-11-19T06:03:35;12.60;96.80
68235;DHT22;55052;52.056;5.296;2023-11-19T06:06:03;12.60;96.80
68235;DHT22;55052;52.056;5.296;2023-11-19T06:08:31;12.60;96.80
68235;DHT22;55052;52.056;5.296;2023-11-19T06:10:58;12.60;96.80
68235;DHT22;55052;52.056;5.296;2023-11-19T06:13:27;12.60;96.80
68235;DHT22;55052;52.056;5.296;2023-11-19T06:15:54;12.60;96.80
68235;DHT22;55052;52.056;5.296;2023-11-19T06:18:21;12.60;96.80
68235;DHT22;55052;52.056;5.296;2023-11-19T06:20:48;12.60;97.10
68235;DHT22;55052;52.056;5.296;2023-11-19T06:23:16;12.60;96.70
68235;DHT22;55052;52.056;5.296;2023-11-19T06:25:43;12.60;96.70
68235;DHT22;55052;52.056;5.296;2023-11-19T06:28:09;12.60;96.70
68235;DHT22;55052;52.056;5.296;2023-11-19T06:30:36;12.50;96.70
68235;DHT22;55052;52.056;5.296;2023-11-19T06:33:03;12.60;96.70
68235;DHT22;55052;52.056;5.296;2023-11-19T06:35:30;12.60;96.70
68235;DHT22;55052;52.056;5.296;2023-11-19T06:38:03;12.50;96.70
68235;DHT22;55052;52.056;5.296;2023-11-19T06:40:33;12.50;96.70
68235;DHT22;55052;52.056;5.296;2023-11-19T06:43:02;12.50;96.70
68235;DHT22;55052;52.056;5.296;2023-11-19T06:45:35;12.50;96.70
68235;DHT22;55052;52.056;5.296;2023-11-19T06:48:04;12.50;96.70
68235;DHT22;55052;52.056;5.296;2023-11-19T06:50:32;12.50;96.70
68235;DHT22;55052;52.056;5.296;2023-11-19T06:52:59;12.40;96.60
68235;DHT22;55052;52.056;5.296;2023-11-19T06:55:26;12.50;96.70
68235;DHT22;55052;52.056;5.296;2023-11-19T06:57:53;12.40;96.70
68235;DHT22;55052;52.056;5.296;2023-11-19T07:00:20;12.50;96.70
68235;DHT22;55052;52.056;5.296;2023-11-19T07:02:47;12.40;96.60
68235;DHT22;55052;52.056;5.296;2023-11-19T07:05:15;12.40;96.60
68235;DHT22;55052;52.056;5.296;2023-11-19T07:07:41;12.40;96.60
68235;DHT22;55052;52.056;5.296;2023-11-19T07:10:08;12.40;96.60
68235;DHT22;55052;52.056;5.296;2023-11-19T07:12:36;12.40;96.70
68235;DHT22;55052;52.056;5.296;2023-11-19T07:15:03;12.40;96.60
68235;DHT22;55052;52.056;5.296;2023-11-19T07:17:31;12.40;96.60
68235;DHT22;55052;52.056;5.296;2023-11-19T07:19:58;12.40;96.60
68235;DHT22;55052;52.056;5.296;2023-11-19T07:22:26;12.40;96.60
68235;DHT22;55052;52.056;5.296;2023-11-19T07:24:56;12.40;96.70
68235;DHT22;55052;52.056;5.296;2023-11-19T07:27:23;12.40;96.70
68235;DHT22;55052;52.056;5.296;2023-11-19T07:29:51;12.40;96.70
68235;DHT22;55052;52.056;5.296;2023-11-19T07:32:18;12.40;96.70
68235;DHT22;55052;52.056;5.296;2023-11-19T07:34:45;12.40;96.70
68235;DHT22;55052;52.056;5.296;2023-11-19T07:37:12;12.40;96.70
68235;DHT22;55052;52.056;5.296;2023-11-19T07:39:39;12.40;96.70
68235;DHT22;55052;52.056;5.296;2023-11-19T07:42:08;12.50;96.70
68235;DHT22;55052;52.056;5.296;2023-11-19T07:44:36;12.50;96.70
68235;DHT22;55052;52.056;5.296;2023-11-19T07:47:03;12.50;96.70
68235;DHT22;55052;52.056;5.296;2023-11-19T07:49:30;12.50;96.70
68235;DHT22;55052;52.056;5.296;2023-11-19T07:51:57;12.50;96.80
68235;DHT22;55052;52.056;5.296;2023-11-19T07:54:24;12.50;96.80
68235;DHT22;55052;52.056;5.296;2023-11-19T07:56:51;12.60;96.80
68235;DHT22;55052;52.056;5.296;2023-11-19T07:59:18;12.60;96.80
68235;DHT22;55052;52.056;5.296;2023-11-19T08:01:45;12.60;96.80
68235;DHT22;55052;52.056;5.296;2023-11-19T08:04:11;12.60;96.80
68235;DHT22;55052;52.056;5.296;2023-11-19T08:06:39;12.60;96.80
68235;DHT22;55052;52.056;5.296;2023-11-19T08:09:06;12.60;96.80
68235;DHT22;55052;52.056;5.296;2023-11-19T08:11:33;12.60;96.80
68235;DHT22;55052;52.056;5.296;2023-11-19T08:14:00;12.70;96.90
68235;DHT22;55052;52.056;5.296;2023-11-19T08:16:27;12.70;96.80
68235;DHT22;55052;52.056;5.296;2023-11-19T08:18:54;12.70;96.80
68235;DHT22;55052;52.056;5.296;2023-11-19T08:21:21;12.80;96.90
68235;DHT22;55052;52.056;5.296;2023-11-19T08:23:49;12.80;96.80
68235;DHT22;55052;52.056;5.296;2023-11-19T08:26:16;12.80;96.80
68235;DHT22;55052;52.056;5.296;2023-11-19T08:28:47;12.80;96.70
68235;DHT22;55052;52.056;5.296;2023-11-19T08:31:14;12.80;96.70
68235;DHT22;55052;52.056;5.296;2023-11-19T08:33:41;12.80;96.70
68235;DHT22;55052;52.056;5.296;2023-11-19T08:36:08;12.80;96.60
68235;DHT22;55052;52.056;5.296;2023-11-19T08:38:35;12.90;96.60
68235;DHT22;55052;52.056;5.296;2023-11-19T08:41:02;12.90;96.60
68235;DHT22;55052;52.056;5.296;2023-11-19T08:43:29;12.90;96.60
68235;DHT22;55052;52.056;5.296;2023-11-19T08:45:58;12.90;96.50
68235;DHT22;55052;52.056;5.296;2023-11-19T08:48:25;12.90;96.50
68235;DHT22;55052;52.056;5.296;2023-11-19T08:50:52;13.00;96.40
68235;DHT22;55052;52.056;5.296;2023-11-19T08:53:19;13.00;96.40
68235;DHT22;55052;52.056;5.296;2023-11-19T08:55:46;13.00;96.40
68235;DHT22;55052;52.056;5.296;2023-11-19T08:58:13;13.00;96.40
68235;DHT22;55052;52.056;5.296;2023-11-19T09:00:40;13.10;96.50
68235;DHT22;55052;52.056;5.296;2023-11-19T09:03:07;13.10;96.40
68235;DHT22;55052;52.056;5.296;2023-11-19T09:05:36;13.10;96.30
68235;DHT22;55052;52.056;5.296;2023-11-19T09:08:04;13.10;96.30
68235;DHT22;55052;52.056;5.296;2023-11-19T09:10:31;13.20;96.20
68235;DHT22;55052;52.056;5.296;2023-11-19T09:12:58;13.20;96.20
68235;DHT22;55052;52.056;5.296;2023-11-19T09:15:25;13.20;96.20
68235;DHT22;55052;52.056;5.296;2023-11-19T09:17:52;13.20;96.20
68235;DHT22;55052;52.056;5.296;2023-11-19T09:20:19;13.30;96.00
68235;DHT22;55052;52.056;5.296;2023-11-19T09:22:46;13.30;96.00
68235;DHT22;55052;52.056;5.296;2023-11-19T09:25:13;13.30;96.00
68235;DHT22;55052;52.056;5.296;2023-11-19T09:27:44;13.30;95.90
68235;DHT22;55052;52.056;5.296;2023-11-19T09:30:11;13.30;95.80
68235;DHT22;55052;52.056;5.296;2023-11-19T09:32:39;13.30;95.80
68235;DHT22;55052;52.056;5.296;2023-11-19T09:35:07;13.30;95.80
68235;DHT22;55052;52.056;5.296;2023-11-19T09:37:35;13.40;95.80
68235;DHT22;55052;52.056;5.296;2023-11-19T09:40:02;13.40;95.80
68235;DHT22;55052;52.056;5.296;2023-11-19T09:42:29;13.40;95.80
68235;DHT22;55052;52.056;5.296;2023-11-19T09:44:59;13.40;95.70
68235;DHT22;55052;52.056;5.296;2023-11-19T09:47:26;13.50;95.70
68235;DHT22;55052;52.056;5.296;2023-11-19T09:49:54;13.50;95.70
68235;DHT22;55052;52.056;5.296;2023-11-19T09:52:24;13.50;95.60
68235;DHT22;55052;52.056;5.296;2023-11-19T09:54:51;13.60;95.60
68235;DHT22;55052;52.056;5.296;2023-11-19T09:57:18;13.60;95.50
68235;DHT22;55052;52.056;5.296;2023-11-19T09:59:45;13.60;95.40
68235;DHT22;55052;52.056;5.296;2023-11-19T10:02:14;13.60;95.40
68235;DHT22;55052;52.056;5.296;2023-11-19T10:04:42;13.60;95.30
68235;DHT22;55052;52.056;5.296;2023-11-19T10:07:11;13.60;95.20
68235;DHT22;55052;52.056;5.296;2023-11-19T10:09:38;13.70;95.20
68235;DHT22;55052;52.056;5.296;2023-11-19T10:12:05;13.70;95.20
68235;DHT22;55052;52.056;5.296;2023-11-19T10:14:35;13.70;95.00
68235;DHT22;55052;52.056;5.296;2023-11-19T10:17:07;13.70;95.00
68235;DHT22;55052;52.056;5.296;2023-11-19T10:19:34;13.80;95.00
68235;DHT22;55052;52.056;5.296;2023-11-19T10:22:05;13.70;95.00
68235;DHT22;55052;52.056;5.296;2023-11-19T10:24:32;13.90;95.00
68235;DHT22;55052;52.056;5.296;2023-11-19T10:27:09;13.90;94.70
68235;DHT22;55052;52.056;5.296;2023-11-19T10:29:38;13.90;94.70
68235;DHT22;55052;52.056;5.296;2023-11-19T10:32:05;13.90;94.70
68235;DHT22;55052;52.056;5.296;2023-11-19T10:34:52;13.90;94.60
68235;DHT22;55052;52.056;5.296;2023-11-19T10:37:29;13.90;94.50
68235;DHT22;55052;52.056;5.296;2023-11-19T10:39:59;14.00;94.40
68235;DHT22;55052;52.056;5.296;2023-11-19T10:42:26;14.00;94.30
68235;DHT22;55052;52.056;5.296;2023-11-19T10:44:53;14.00;94.40
68235;DHT22;55052;52.056;5.296;2023-11-19T10:47:22;14.10;94.30
68235;DHT22;55052;52.056;5.296;2023-11-19T10:49:52;14.10;94.20
68235;DHT22;55052;52.056;5.296;2023-11-19T10:52:19;14.10;94.20
68235;DHT22;55052;52.056;5.296;2023-11-19T10:54:50;14.10;94.10
68235;DHT22;55052;52.056;5.296;2023-11-19T10:57:21;14.20;94.10
68235;DHT22;55052;52.056;5.296;2023-11-19T10:59:49;14.20;94.00
68235;DHT22;55052;52.056;5.296;2023-11-19T11:02:19;14.20;94.00
68235;DHT22;55052;52.056;5.296;2023-11-19T11:04:49;14.20;93.70
68235;DHT22;55052;52.056;5.296;2023-11-19T11:07:18;14.30;93.90
68235;DHT22;55052;52.056;5.296;2023-11-19T11:09:53;14.30;93.90
68235;DHT22;55052;52.056;5.296;2023-11-19T11:12:22;14.30;93.90
68235;DHT22;55052;52.056;5.296;2023-11-19T11:14:50;14.40;93.80
68235;DHT22;55052;52.056;5.296;2023-11-19T11:17:20;14.40;93.80
68235;DHT22;55052;52.056;5.296;2023-11-19T11:19:50;14.40;93.60
68235;DHT22;55052;52.056;5.296;2023-11-19T11:22:18;14.50;93.60
68235;DHT22;55052;52.056;5.296;2023-11-19T11:25:24;14.50;93.60
68235;DHT22;55052;52.056;5.296;2023-11-19T11:28:15;14.50;93.30
68235;DHT22;55052;52.056;5.296;2023-11-19T11:30:59;14.50;93.20
68235;DHT22;55052;52.056;5.296;2023-11-19T11:36:18;14.50;93.10
68235;DHT22;55052;52.056;5.296;2023-11-19T11:38:48;14.50;93.20
68235;DHT22;55052;52.056;5.296;2023-11-19T11:41:17;14.50;93.30
68235;DHT22;55052;52.056;5.296;2023-11-19T11:43:49;14.60;93.40
68235;DHT22;55052;52.056;5.296;2023-11-19T11:49:07;14.60;93.20
68235;DHT22;55052;52.056;5.296;2023-11-19T11:57:02;14.60;92.90
68235;DHT22;55052;52.056;5.296;2023-11-19T12:02:04;14.60;92.80
68235;DHT22;55052;52.056;5.296;2023-11-19T12:04:34;14.60;92.80
68235;DHT22;55052;52.056;5.296;2023-11-19T12:07:15;14.70;92.80
68235;DHT22;55052;52.056;5.296;2023-11-19T12:09:48;14.70;92.80
68235;DHT22;55052;52.056;5.296;2023-11-19T12:12:23;14.70;92.80
68235;DHT22;55052;52.056;5.296;2023-11-19T12:15:00;14.70;92.70
68235;DHT22;55052;52.056;5.296;2023-11-19T12:20:00;14.70;92.60
68235;DHT22;55052;52.056;5.296;2023-11-19T12:22:28;14.70;92.50
68235;DHT22;55052;52.056;5.296;2023-11-19T12:24:55;14.80;92.40
68235;DHT22;55052;52.056;5.296;2023-11-19T12:27:22;14.80;92.40
68235;DHT22;55052;52.056;5.296;2023-11-19T12:29:49;14.80;92.40
68235;DHT22;55052;52.056;5.296;2023-11-19T12:32:17;14.80;92.30
68235;DHT22;55052;52.056;5.296;2023-11-19T12:34:45;14.80;92.30
68235;DHT22;55052;52.056;5.296;2023-11-19T12:37:12;14.90;92.30
68235;DHT22;55052;52.056;5.296;2023-11-19T12:39:39;14.90;92.30
68235;DHT22;55052;52.056;5.296;2023-11-19T12:42:07;14.90;92.40
68235;DHT22;55052;52.056;5.296;2023-11-19T12:44:34;15.00;92.40
68235;DHT22;55052;52.056;5.296;2023-11-19T12:47:05;15.00;92.30
68235;DHT22;55052;52.056;5.296;2023-11-19T12:49:33;15.00;92.20
68235;DHT22;55052;52.056;5.296;2023-11-19T12:52:00;15.10;92.10
68235;DHT22;55052;52.056;5.296;2023-11-19T12:54:37;15.10;92.10
68235;DHT22;55052;52.056;5.296;2023-11-19T12:57:05;15.10;92.00
68235;DHT22;55052;52.056;5.296;2023-11-19T12:59:32;15.00;91.90
68235;DHT22;55052;52.056;5.296;2023-11-19T13:01:59;15.10;92.20
68235;DHT22;55052;52.056;5.296;2023-11-19T13:04:30;15.10;91.70
68235;DHT22;55052;52.056;5.296;2023-11-19T13:07:00;15.00;91.70
68235;DHT22;55052;52.056;5.296;2023-11-19T13:09:30;15.00;91.70
68235;DHT22;55052;52.056;5.296;2023-11-19T13:11:57;14.90;91.60
68235;DHT22;55052;52.056;5.296;2023-11-19T13:14:36;14.90;91.60
68235;DHT22;55052;52.056;5.296;2023-11-19T13:17:05;14.90;91.60
68235;DHT22;55052;52.056;5.296;2023-11-19T13:19:32;14.80;91.70
68235;DHT22;55052;52.056;5.296;2023-11-19T13:21:59;14.90;91.70
68235;DHT22;55052;52.056;5.296;2023-11-19T13:24:26;14.80;91.90
68235;DHT22;55052;52.056;5.296;2023-11-19T13:26:52;14.80;92.00
68235;DHT22;55052;52.056;5.296;2023-11-19T13:29:19;14.70;92.20
68235;DHT22;55052;52.056;5.296;2023-11-19T13:31:46;14.70;92.40
68235;DHT22;55052;52.056;5.296;2023-11-19T13:34:13;14.60;92.50
68235;DHT22;55052;52.056;5.296;2023-11-19T13:36:40;14.50;92.60
68235;DHT22;55052;52.056;5.296;2023-11-19T13:39:06;14.50;92.90
68235;DHT22;55052;52.056;5.296;2023-11-19T13:41:33;14.40;93.00
68235;DHT22;55052;52.056;5.296;2023-11-19T13:44:00;14.30;93.10
68235;DHT22;55052;52.056;5.296;2023-11-19T13:46:27;14.30;93.30
68235;DHT22;55052;52.056;5.296;2023-11-19T13:48:54;14.30;93.40
68235;DHT22;55052;52.056;5.296;2023-11-19T13:51:21;14.20;93.50
68235;DHT22;55052;52.056;5.296;2023-11-19T13:53:48;14.20;93.60
68235;DHT22;55052;52.056;5.296;2023-11-19T13:56:18;14.20;94.10
68235;DHT22;55052;52.056;5.296;2023-11-19T13:58:45;14.10;94.10
68235;DHT22;55052;52.056;5.296;2023-11-19T14:01:12;14.10;93.80
68235;DHT22;55052;52.056;5.296;2023-11-19T14:03:40;14.10;93.80
68235;DHT22;55052;52.056;5.296;2023-11-19T14:06:08;14.00;93.80
68235;DHT22;55052;52.056;5.296;2023-11-19T14:08:35;14.00;93.90
68235;DHT22;55052;52.056;5.296;2023-11-19T14:11:03;14.00;93.90
68235;DHT22;55052;52.056;5.296;2023-11-19T14:13:30;14.00;94.10
68235;DHT22;55052;52.056;5.296;2023-11-19T14:15:56;14.00;94.20
68235;DHT22;55052;52.056;5.296;2023-11-19T14:18:23;14.00;94.20
68235;DHT22;55052;52.056;5.296;2023-11-19T14:20:50;14.00;94.30
68235;DHT22;55052;52.056;5.296;2023-11-19T14:23:17;14.00;94.30
68235;DHT22;55052;52.056;5.296;2023-11-19T14:25:44;14.00;94.30
68235;DHT22;55052;52.056;5.296;2023-11-19T14:28:10;14.00;94.20
68235;DHT22;55052;52.056;5.296;2023-11-19T14:30:37;14.00;94.20
68235;DHT22;55052;52.056;5.296;2023-11-19T14:33:05;14.00;94.10
68235;DHT22;55052;52.056;5.296;2023-11-19T14:35:32;14.00;94.00
68235;DHT22;55052;52.056;5.296;2023-11-19T14:38:00;14.00;93.90
68235;DHT22;55052;52.056;5.296;2023-11-19T14:40:31;14.00;93.80
68235;DHT22;55052;52.056;5.296;2023-11-19T14:43:01;14.00;93.80
68235;DHT22;55052;52.056;5.296;2023-11-19T14:45:28;14.00;93.70
68235;DHT22;55052;52.056;5.296;2023-11-19T14:48:05;14.00;93.70
68235;DHT22;55052;52.056;5.296;2023-11-19T14:50:32;14.00;93.60
68235;DHT22;55052;52.056;5.296;2023-11-19T14:52:59;14.00;93.60
68235;DHT22;55052;52.056;5.296;2023-11-19T14:55:26;14.00;93.60
68235;DHT22;55052;52.056;5.296;2023-11-19T14:57:53;14.00;93.50
68235;DHT22;55052;52.056;5.296;2023-11-19T15:00:33;14.00;93.50
68235;DHT22;55052;52.056;5.296;2023-11-19T15:03:00;14.00;93.40
68235;DHT22;55052;52.056;5.296;2023-11-19T15:05:27;14.00;93.40
68235;DHT22;55052;52.056;5.296;2023-11-19T15:07:55;14.00;93.40
68235;DHT22;55052;52.056;5.296;2023-11-19T15:10:22;14.00;93.40
68235;DHT22;55052;52.056;5.296;2023-11-19T15:12:52;14.00;93.40
68235;DHT22;55052;52.056;5.296;2023-11-19T15:15:20;14.00;93.30
68235;DHT22;55052;52.056;5.296;2023-11-19T15:17:50;13.90;93.30
68235;DHT22;55052;52.056;5.296;2023-11-19T15:20:17;14.00;93.30
68235;DHT22;55052;52.056;5.296;2023-11-19T15:22:46;14.00;93.20
68235;DHT22;55052;52.056;5.296;2023-11-19T15:25:13;13.90;93.10
68235;DHT22;55052;52.056;5.296;2023-11-19T15:27:40;13.90;93.10
68235;DHT22;55052;52.056;5.296;2023-11-19T15:30:07;13.90;93.10
68235;DHT22;55052;52.056;5.296;2023-11-19T15:32:37;14.00;93.10
68235;DHT22;55052;52.056;5.296;2023-11-19T15:35:04;13.90;93.00
68235;DHT22;55052;52.056;5.296;2023-11-19T15:37:31;14.00;93.10
68235;DHT22;55052;52.056;5.296;2023-11-19T15:39:58;13.90;93.00
68235;DHT22;55052;52.056;5.296;2023-11-19T15:42:25;13.90;93.00
68235;DHT22;55052;52.056;5.296;2023-11-19T15:44:52;13.90;93.00
68235;DHT22;55052;52.056;5.296;2023-11-19T15:47:18;13.90;93.00
68235;DHT22;55052;52.056;5.296;2023-11-19T15:49:45;13.90;92.90
68235;DHT22;55052;52.056;5.296;2023-11-19T15:52:12;13.90;92.90